createdAt,value
2023-02-04T00:00:43.168Z,96684.53
2023-02-04T00:03:13.140Z,96680.47
2023-02-04T00:05:42.181Z,96681.91
2023-02-04T00:08:11.111Z,96667.72
2023-02-04T00:10:40.044Z,96685.69
2023-02-04T00:13:08.975Z,96689.13
2023-02-04T00:15:37.917Z,96697.13
2023-02-04T00:18:09.489Z,96696.13
2023-02-04T00:20:38.289Z,96696.34
2023-02-04T00:23:07.206Z,96701.94
2023-02-04T00:25:36.003Z,96699.44
2023-02-04T00:28:05.026Z,96699.34
2023-02-04T00:30:34.030Z,96698.69
2023-02-04T00:33:04.175Z,96698.03
2023-02-04T00:35:33.187Z,96704.88
2023-02-04T00:38:02.154Z,96702.09
2023-02-04T00:40:31.086Z,96708.91
2023-02-04T00:43:00.488Z,96714.69
2023-02-04T00:45:29.369Z,96708.47
2023-02-04T00:47:58.146Z,96713.91
2023-02-04T00:50:27.217Z,96715.72
2023-02-04T00:52:56.207Z,96711.31
2023-02-04T00:55:25.198Z,96709.63
2023-02-04T00:57:53.982Z,96714.78
2023-02-04T01:00:23.722Z,96723.78
2023-02-04T01:02:53.073Z,96720.94
2023-02-04T01:05:21.849Z,96718.72
2023-02-04T01:07:50.848Z,96717.63
2023-02-04T01:10:20.413Z,96719.00
2023-02-04T01:12:49.520Z,96729.22
2023-02-04T01:15:18.743Z,96730.59
2023-02-04T01:17:47.552Z,96726.75
2023-02-04T01:20:16.608Z,96733.56
2023-02-04T01:22:45.399Z,96729.13
2023-02-04T01:25:14.145Z,96733.78
2023-02-04T01:27:46.024Z,96733.34
2023-02-04T01:30:16.386Z,96733.56
2023-02-04T01:32:45.199Z,96732.19
2023-02-04T01:35:14.280Z,96738.56
2023-02-04T01:37:43.117Z,96743.56
2023-02-04T01:40:12.657Z,96744.94
2023-02-04T01:42:41.852Z,96744.44
2023-02-04T01:45:11.858Z,96738.72
2023-02-04T01:47:41.825Z,96730.44
2023-02-04T01:50:13.924Z,96736.53
2023-02-04T01:52:46.248Z,96731.44
2023-02-04T01:55:20.813Z,96729.84
2023-02-04T01:57:53.609Z,96727.09
2023-02-04T02:00:33.551Z,96732.91
2023-02-04T02:03:04.068Z,96733.69
2023-02-04T02:05:40.283Z,96732.44
2023-02-04T02:08:11.119Z,96734.75
2023-02-04T02:10:42.822Z,96733.63
2023-02-04T02:13:17.074Z,96736.72
2023-02-04T02:15:47.327Z,96742.66
2023-02-04T02:18:17.187Z,96747.34
2023-02-04T02:20:47.530Z,96743.16
2023-02-04T02:23:45.653Z,96744.81
2023-02-04T02:26:16.022Z,96739.25
2023-02-04T02:28:46.231Z,96749.19
2023-02-04T02:31:17.058Z,96735.00
2023-02-04T02:33:46.412Z,96747.22
2023-02-04T02:36:15.704Z,96744.66
2023-02-04T02:38:45.507Z,96750.34
2023-02-04T02:41:14.484Z,96750.31
2023-02-04T02:43:43.384Z,96745.06
2023-02-04T02:46:12.702Z,96754.53
2023-02-04T02:48:41.564Z,96749.09
2023-02-04T02:51:10.506Z,96748.81
2023-02-04T02:53:39.450Z,96739.94
2023-02-04T02:56:10.496Z,96734.91
2023-02-04T02:58:39.777Z,96742.69
2023-02-04T03:01:11.091Z,96744.03
2023-02-04T03:03:46.576Z,96744.53
2023-02-04T03:06:26.209Z,96746.59
2023-02-04T03:08:57.698Z,96750.38
2023-02-04T03:11:30.340Z,96757.06
2023-02-04T03:14:03.443Z,96743.38
2023-02-04T03:16:37.411Z,96751.06
2023-02-04T03:19:08.423Z,96750.47
2023-02-04T03:21:38.488Z,96747.84
2023-02-04T03:24:07.860Z,96756.69
2023-02-04T03:26:39.052Z,96753.72
2023-02-04T03:29:10.987Z,96755.22
2023-02-04T03:31:40.003Z,96752.75
2023-02-04T03:34:09.060Z,96758.19
2023-02-04T03:36:38.337Z,96763.47
2023-02-04T03:39:07.096Z,96767.53
2023-02-04T03:41:35.936Z,96761.31
2023-02-04T03:44:13.665Z,96756.53
2023-02-04T03:46:42.555Z,96760.31
2023-02-04T03:49:11.453Z,96759.72
2023-02-04T03:51:40.222Z,96766.75
2023-02-04T03:54:09.097Z,96768.03
2023-02-04T03:56:37.821Z,96755.22
2023-02-04T03:59:06.968Z,96769.75
2023-02-04T04:01:36.693Z,96771.13
2023-02-04T04:04:05.799Z,96744.28
2023-02-04T04:06:34.597Z,96761.44
2023-02-04T04:09:03.543Z,96760.84
2023-02-04T04:11:32.588Z,96766.91
2023-02-04T04:14:02.026Z,96769.81
2023-02-04T04:16:30.873Z,96763.28
2023-02-04T04:18:59.681Z,96763.28
2023-02-04T04:21:28.526Z,96768.72
2023-02-04T04:23:57.615Z,96772.69
2023-02-04T04:26:26.435Z,96762.78
2023-02-04T04:28:55.289Z,96764.69
2023-02-04T04:31:24.390Z,96764.19
2023-02-04T04:33:53.153Z,96774.88
2023-02-04T04:36:21.912Z,96764.81
2023-02-04T04:38:50.712Z,96747.78
2023-02-04T04:41:19.508Z,96753.34
2023-02-04T04:43:48.321Z,96774.34
2023-02-04T04:46:17.118Z,96768.06
2023-02-04T04:48:46.048Z,96772.16
2023-02-04T04:51:14.910Z,96769.16
2023-02-04T04:53:43.738Z,96773.19
2023-02-04T04:56:12.662Z,96773.59
2023-02-04T04:58:41.602Z,96773.38
2023-02-04T05:01:11.045Z,96772.94
2023-02-04T05:03:40.233Z,96766.72
2023-02-04T05:06:09.969Z,96766.88
2023-02-04T05:08:38.793Z,96768.22
2023-02-04T05:11:07.575Z,96775.56
2023-02-04T05:13:36.407Z,96775.03
2023-02-04T05:16:05.536Z,96768.91
2023-02-04T05:18:34.432Z,96756.59
2023-02-04T05:21:03.207Z,96765.50
2023-02-04T05:23:32.000Z,96764.94
2023-02-04T05:26:00.911Z,96766.94
2023-02-04T05:28:29.888Z,96766.78
2023-02-04T05:30:58.748Z,96760.63
2023-02-04T05:33:27.799Z,96771.94
2023-02-04T05:35:56.889Z,96765.84
2023-02-04T05:38:25.715Z,96772.63
2023-02-04T05:40:54.544Z,96762.47
2023-02-04T05:43:23.298Z,96768.38
2023-02-04T05:45:52.219Z,96762.50
2023-02-04T05:48:21.076Z,96770.19
2023-02-04T05:50:49.862Z,96756.25
2023-02-04T05:53:18.662Z,96764.53
2023-02-04T05:55:47.625Z,96772.41
2023-02-04T05:58:16.622Z,96777.41
2023-02-04T06:00:46.051Z,96773.53
2023-02-04T06:03:15.248Z,96782.41
2023-02-04T06:05:44.854Z,96782.53
2023-02-04T06:08:16.401Z,96778.94
2023-02-04T06:10:45.327Z,96784.94
2023-02-04T06:13:14.266Z,96783.34
2023-02-04T06:15:43.100Z,96780.13
2023-02-04T06:18:12.300Z,96785.88
2023-02-04T06:20:41.164Z,96781.72
2023-02-04T06:23:10.100Z,96788.09
2023-02-04T06:25:39.032Z,96779.72
2023-02-04T06:28:07.867Z,96785.72
2023-02-04T06:30:38.086Z,96789.78
2023-02-04T06:33:06.922Z,96777.00
2023-02-04T06:35:35.770Z,96789.69
2023-02-04T06:38:04.685Z,96774.81
2023-02-04T06:40:33.924Z,96783.84
2023-02-04T06:43:04.505Z,96784.56
2023-02-04T06:45:33.631Z,96784.47
2023-02-04T06:48:02.614Z,96793.47
2023-02-04T06:50:31.556Z,96797.13
2023-02-04T06:53:00.561Z,96778.94
2023-02-04T06:55:29.463Z,96789.13
2023-02-04T06:57:58.268Z,96792.22
2023-02-04T07:00:27.612Z,96792.13
2023-02-04T07:02:57.361Z,96792.81
2023-02-04T07:05:26.613Z,96792.06
2023-02-04T07:07:55.688Z,96796.25
2023-02-04T07:10:24.516Z,96790.06
2023-02-04T07:12:53.333Z,96794.13
2023-02-04T07:15:22.196Z,96784.50
2023-02-04T07:17:51.193Z,96773.03
2023-02-04T07:20:20.207Z,96789.34
2023-02-04T07:22:49.096Z,96789.47
2023-02-04T07:25:18.720Z,96792.09
2023-02-04T07:27:47.612Z,96787.47
2023-02-04T07:30:19.071Z,96801.03
2023-02-04T07:32:48.077Z,96778.47
2023-02-04T07:35:18.253Z,96801.22
2023-02-04T07:37:47.192Z,96799.03
2023-02-04T07:40:16.246Z,96801.78
2023-02-04T07:42:45.047Z,96818.09
2023-02-04T07:45:18.595Z,96802.88
2023-02-04T07:47:47.447Z,96816.50
2023-02-04T07:50:16.796Z,96814.00
2023-02-04T07:52:45.637Z,96809.19
2023-02-04T07:55:14.545Z,96797.50
2023-02-04T07:57:43.360Z,96811.00
2023-02-04T08:00:14.968Z,96810.91
2023-02-04T08:02:44.093Z,96822.75
2023-02-04T08:05:13.367Z,96820.56
2023-02-04T08:07:42.703Z,96834.56
2023-02-04T08:10:12.738Z,96824.88
2023-02-04T08:12:41.721Z,96833.88
2023-02-04T08:15:11.670Z,96827.91
2023-02-04T08:17:40.831Z,96827.47
2023-02-04T08:20:10.296Z,96836.75
2023-02-04T08:22:39.192Z,96837.88
2023-02-04T08:25:08.241Z,96842.25
2023-02-04T08:27:37.027Z,96833.13
2023-02-04T08:30:06.407Z,96829.97
2023-02-04T08:32:35.296Z,96840.19
2023-02-04T08:35:06.356Z,96845.56
2023-02-04T08:37:36.237Z,96841.28
2023-02-04T08:40:05.326Z,96836.41
2023-02-04T08:42:35.414Z,96839.22
2023-02-04T08:45:04.594Z,96845.94
2023-02-04T08:47:33.505Z,96842.84
2023-02-04T08:50:02.493Z,96838.59
2023-02-04T08:52:32.099Z,96851.81
2023-02-04T08:55:00.988Z,96853.06
2023-02-04T08:57:31.801Z,96849.34
2023-02-04T09:00:00.930Z,96857.00
2023-02-04T09:02:30.245Z,96865.75
2023-02-04T09:04:59.512Z,96859.41
2023-02-04T09:07:28.345Z,96852.63
2023-02-04T09:09:57.319Z,96856.69
2023-02-04T09:12:26.828Z,96861.22
2023-02-04T09:14:55.661Z,96854.66
2023-02-04T09:17:24.706Z,96860.88
2023-02-04T09:19:53.624Z,96853.31
2023-02-04T09:22:22.535Z,96864.03
2023-02-04T09:24:51.492Z,96865.91
2023-02-04T09:27:20.633Z,96876.63
2023-02-04T09:29:49.689Z,96870.41
2023-02-04T09:32:18.509Z,96869.47
2023-02-04T09:34:47.309Z,96866.00
2023-02-04T09:37:16.148Z,96871.56
2023-02-04T09:39:45.028Z,96863.28
2023-02-04T09:42:17.876Z,96870.59
2023-02-04T09:44:46.731Z,96866.88
2023-02-04T09:47:25.077Z,96863.88
2023-02-04T09:49:54.180Z,96866.84
2023-02-04T09:52:25.271Z,96869.47
2023-02-04T09:54:54.275Z,96865.09
2023-02-04T09:57:23.169Z,96857.56
2023-02-04T09:59:54.410Z,96874.94
2023-02-04T10:02:26.767Z,96877.75
2023-02-04T10:04:58.705Z,96873.94
2023-02-04T10:07:28.492Z,96872.16
2023-02-04T10:09:57.495Z,96866.72
2023-02-04T10:12:26.631Z,96872.91
2023-02-04T10:14:55.656Z,96879.50
2023-02-04T10:17:24.684Z,96879.03
2023-02-04T10:19:53.850Z,96871.09
2023-02-04T10:22:24.245Z,96880.00
2023-02-04T10:24:53.296Z,96884.06
2023-02-04T10:27:22.270Z,96887.91
2023-02-04T10:30:00.035Z,96884.34
2023-02-04T10:32:34.500Z,96895.78
2023-02-04T10:35:05.672Z,96896.00
2023-02-04T10:37:34.609Z,96893.03
2023-02-04T10:40:03.481Z,96901.66
2023-02-04T10:42:33.335Z,96903.88
2023-02-04T10:45:02.324Z,96895.91
2023-02-04T10:47:33.226Z,96890.16
2023-02-04T10:50:23.049Z,96891.59
2023-02-04T10:53:17.826Z,96898.69
2023-02-04T10:55:51.914Z,96901.31
2023-02-04T10:58:28.072Z,96901.97
2023-02-04T11:00:58.215Z,96894.38
2023-02-04T11:03:31.415Z,96903.97
2023-02-04T11:06:01.989Z,96908.19
2023-02-04T11:08:37.099Z,96912.59
2023-02-04T11:11:18.315Z,96911.00
2023-02-04T11:13:59.077Z,96912.63
2023-02-04T11:16:31.061Z,96914.69
2023-02-04T11:19:01.640Z,96912.91
2023-02-04T11:21:33.659Z,96914.78
2023-02-04T11:24:14.753Z,96919.41
2023-02-04T11:26:46.419Z,96918.38
2023-02-04T11:29:35.437Z,96920.41
2023-02-04T11:32:29.173Z,96915.03
2023-02-04T11:35:14.152Z,96926.66
2023-02-04T11:37:44.248Z,96926.47
2023-02-04T11:40:35.235Z,96927.09
2023-02-04T11:43:17.471Z,96918.53
2023-02-04T11:45:47.572Z,96928.53
2023-02-04T11:48:20.417Z,96921.75
2023-02-04T11:51:00.133Z,96928.13
2023-02-04T11:53:35.139Z,96931.97
2023-02-04T11:56:04.489Z,96939.59
2023-02-04T11:58:33.806Z,96923.22
2023-02-04T12:01:03.622Z,96940.19
2023-02-04T12:03:36.771Z,96940.41
2023-02-04T12:06:06.169Z,96943.22
2023-02-04T12:08:37.337Z,96941.03
2023-02-04T12:11:28.089Z,96930.47
2023-02-04T12:14:13.523Z,96929.28
2023-02-04T12:16:46.988Z,96941.31
2023-02-04T12:19:16.035Z,96934.47
2023-02-04T12:21:44.815Z,96936.47
2023-02-04T12:24:13.772Z,96927.31
2023-02-04T12:26:59.289Z,96943.09
2023-02-04T12:29:28.385Z,96937.94
2023-02-04T12:31:57.580Z,96920.94
2023-02-04T12:34:26.583Z,96937.94
2023-02-04T12:36:55.588Z,96930.34
2023-02-04T12:39:24.542Z,96943.53
2023-02-04T12:41:53.391Z,96935.91
2023-02-04T12:44:22.337Z,96939.72
2023-02-04T12:46:51.896Z,96943.31
2023-02-04T12:49:20.805Z,96941.75
2023-02-04T12:51:49.715Z,96955.75
2023-02-04T12:54:19.962Z,96951.56
2023-02-04T12:56:50.778Z,96948.78
2023-02-04T12:59:19.785Z,96965.97
2023-02-04T13:01:49.364Z,96965.19
2023-02-04T13:04:18.841Z,96962.97
2023-02-04T13:06:47.769Z,96960.78
2023-02-04T13:09:16.722Z,96960.78
2023-02-04T13:11:46.379Z,96963.59
2023-02-04T13:14:15.203Z,96960.56
2023-02-04T13:16:44.162Z,96957.19
2023-02-04T13:19:13.081Z,96967.81
2023-02-04T13:21:42.109Z,96968.44
2023-02-04T13:24:11.009Z,96965.00
2023-02-04T13:26:40.020Z,96962.41
2023-02-04T13:29:08.999Z,96977.63
2023-02-04T13:31:37.983Z,96976.44
2023-02-04T13:34:06.766Z,96976.81
2023-02-04T13:36:35.666Z,96986.03
2023-02-04T13:39:04.628Z,96980.63
2023-02-04T13:41:33.864Z,96983.63
2023-02-04T13:44:03.402Z,96986.63
2023-02-04T13:46:32.699Z,96989.81
2023-02-04T13:49:01.632Z,96988.00
2023-02-04T13:51:31.293Z,96992.44
2023-02-04T13:54:01.087Z,96990.03
2023-02-04T13:56:31.505Z,96994.19
2023-02-04T13:59:00.543Z,96992.19
2023-02-04T14:01:30.953Z,96988.00
2023-02-04T14:04:00.444Z,96985.59
2023-02-04T14:06:34.626Z,96991.19
2023-02-04T14:09:04.052Z,96985.97
2023-02-04T14:11:32.933Z,96992.34
2023-02-04T14:14:01.848Z,96996.53
2023-02-04T14:16:30.710Z,96994.94
2023-02-04T14:18:59.815Z,96997.72
2023-02-04T14:21:28.824Z,97000.56
2023-02-04T14:23:57.647Z,96997.34
2023-02-04T14:26:26.632Z,97001.75
2023-02-04T14:28:55.533Z,97004.59
2023-02-04T14:31:24.530Z,97002.16
2023-02-04T14:33:53.502Z,96996.53
2023-02-04T14:36:22.859Z,96998.72
2023-02-04T14:38:51.769Z,97009.13
2023-02-04T14:41:22.144Z,97005.94
2023-02-04T14:43:50.986Z,97007.88
2023-02-04T14:46:20.481Z,97013.09
2023-02-04T14:48:52.620Z,97019.88
2023-02-04T14:51:21.642Z,97014.72
2023-02-04T14:53:50.632Z,97020.34
2023-02-04T14:56:20.144Z,97011.16
2023-02-04T14:58:49.115Z,97016.38
2023-02-04T15:01:20.326Z,97013.59
2023-02-04T15:03:49.603Z,97009.63
2023-02-04T15:06:18.497Z,97013.06
2023-02-04T15:08:47.359Z,96998.84
2023-02-04T15:11:16.265Z,97012.03
2023-02-04T15:13:45.140Z,97003.03
2023-02-04T15:16:15.427Z,97015.84
2023-02-04T15:18:44.490Z,97013.81
2023-02-04T15:21:13.779Z,97007.81
2023-02-04T15:23:45.051Z,96998.97
2023-02-04T15:26:15.016Z,96989.16
2023-02-04T15:28:43.990Z,96985.38
2023-02-04T15:31:13.145Z,96999.16
2023-02-04T15:33:45.911Z,97012.53
2023-02-04T15:36:14.904Z,97006.91
2023-02-04T15:38:43.749Z,97010.88
2023-02-04T15:41:13.094Z,97016.47
2023-02-04T15:43:41.856Z,97008.06
2023-02-04T15:46:10.786Z,97012.09
2023-02-04T15:48:40.045Z,96999.66
2023-02-04T15:51:08.906Z,97005.69
2023-02-04T15:53:38.400Z,97015.13
2023-02-04T15:56:07.749Z,97008.31
2023-02-04T15:58:36.969Z,97008.09
2023-02-04T16:01:07.299Z,97013.28
2023-02-04T16:03:37.199Z,97017.06
2023-02-04T16:06:06.364Z,97008.63
2023-02-04T16:08:35.496Z,97011.66
2023-02-04T16:11:38.884Z,97001.03
2023-02-04T16:14:08.408Z,97010.03
2023-02-04T16:16:37.307Z,97005.03
2023-02-04T16:19:06.446Z,97021.09
2023-02-04T16:21:35.471Z,97027.28
2023-02-04T16:24:04.662Z,97016.22
2023-02-04T16:26:33.715Z,97013.78
2023-02-04T16:29:02.739Z,97014.78
2023-02-04T16:31:31.701Z,97008.38
2023-02-04T16:34:00.611Z,97005.19
2023-02-04T16:36:29.674Z,97017.63
2023-02-04T16:39:00.113Z,97009.81
2023-02-04T16:41:29.217Z,97005.03
2023-02-04T16:43:58.875Z,97014.44
2023-02-04T16:46:29.332Z,97012.63
2023-02-04T16:48:58.612Z,96997.84
2023-02-04T16:51:28.012Z,97005.25
2023-02-04T16:53:57.026Z,97028.09
2023-02-04T16:56:27.772Z,97013.94
2023-02-04T16:58:56.625Z,97019.72
2023-02-04T17:01:26.434Z,97015.59
2023-02-04T17:03:58.826Z,97022.22
2023-02-04T17:06:32.731Z,97027.03
2023-02-04T17:09:01.605Z,97030.84
2023-02-04T17:11:30.645Z,97030.06
2023-02-04T17:14:07.752Z,97020.28
2023-02-04T17:16:37.395Z,97036.66
2023-02-04T17:19:06.373Z,97035.25
2023-02-04T17:21:35.299Z,97018.25
2023-02-04T17:24:04.576Z,97027.25
2023-02-04T17:26:37.959Z,97019.44
2023-02-04T17:29:15.949Z,97038.84
2023-02-04T17:31:45.688Z,97035.97
2023-02-04T17:34:14.670Z,97018.31
2023-02-04T17:36:43.553Z,97028.13
2023-02-04T17:39:12.459Z,97026.50
2023-02-04T17:41:41.386Z,97036.66
2023-02-04T17:44:10.460Z,97027.44
2023-02-04T17:46:39.410Z,97017.59
2023-02-04T17:49:08.287Z,97034.16
2023-02-04T17:51:37.170Z,97028.72
2023-02-04T17:54:06.053Z,97033.50
2023-02-04T17:56:35.375Z,97031.28
2023-02-04T17:59:06.937Z,97030.06
2023-02-04T18:01:36.407Z,97019.25
2023-02-04T18:04:12.602Z,97012.66
2023-02-04T18:06:41.856Z,97019.69
2023-02-04T18:09:17.951Z,97016.25
2023-02-04T18:11:46.845Z,97020.47
2023-02-04T18:14:28.574Z,97003.84
2023-02-04T18:17:01.148Z,97019.88
2023-02-04T18:19:32.317Z,97025.66
2023-02-04T18:22:01.638Z,97015.88
2023-02-04T18:24:36.900Z,97017.84
2023-02-04T18:27:24.112Z,97027.44
2023-02-04T18:29:56.225Z,97006.16
2023-02-04T18:32:37.203Z,97018.75
2023-02-04T18:35:33.789Z,97025.69
2023-02-04T18:38:03.221Z,97005.16
2023-02-04T18:40:34.094Z,97031.22
2023-02-04T18:43:15.144Z,97026.22
2023-02-04T18:45:44.059Z,97029.56
2023-02-04T18:48:22.127Z,97035.13
2023-02-04T18:50:52.850Z,97028.50
2023-02-04T18:53:29.211Z,97029.28
2023-02-04T18:56:02.451Z,97033.28
2023-02-04T18:58:41.434Z,97033.28
2023-02-04T19:01:15.928Z,97041.66
2023-02-04T19:04:02.795Z,97029.09
2023-02-04T19:06:40.219Z,97026.50
2023-02-04T19:09:14.849Z,97031.28
2023-02-04T19:12:14.877Z,97035.06
2023-02-04T19:14:46.148Z,97039.84
2023-02-04T19:17:18.138Z,97033.84
2023-02-04T19:19:57.508Z,97035.81
2023-02-04T19:22:45.642Z,97045.38
2023-02-04T19:25:23.399Z,97043.38
2023-02-04T19:27:55.482Z,97046.56
2023-02-04T19:30:27.350Z,97049.69
2023-02-04T19:32:58.221Z,97055.25
2023-02-04T19:35:41.508Z,97055.25
2023-02-04T19:38:31.536Z,97054.63
2023-02-04T19:41:01.171Z,97050.38
2023-02-04T19:43:39.655Z,97063.34
2023-02-04T19:46:35.166Z,97060.03
2023-02-04T19:49:20.899Z,97048.03
2023-02-04T19:51:54.050Z,97051.03
2023-02-04T19:54:25.846Z,97050.25
2023-02-04T19:56:56.072Z,97053.44
2023-02-04T19:59:36.527Z,97049.59
2023-02-04T20:02:09.475Z,97051.78
2023-02-04T20:04:44.177Z,97033.06
2023-02-04T20:07:27.782Z,97030.78
2023-02-04T20:10:25.360Z,97042.47
2023-02-04T20:13:01.456Z,97048.47
2023-02-04T20:15:31.815Z,97046.97
2023-02-04T20:18:01.111Z,97055.09
2023-02-04T20:20:32.221Z,97055.28
2023-02-04T20:23:02.942Z,97055.47
2023-02-04T20:25:42.481Z,97059.47
2023-02-04T20:28:40.429Z,97054.03
2023-02-04T20:31:35.597Z,97047.28
2023-02-04T20:34:18.290Z,97033.16
2023-02-04T20:36:48.311Z,97042.59
2023-02-04T20:39:24.489Z,97035.28
2023-02-04T20:41:54.073Z,97033.50
2023-02-04T20:44:35.533Z,97043.06
2023-02-04T20:47:26.670Z,97048.25
2023-02-04T20:49:59.850Z,97050.38
2023-02-04T20:52:41.053Z,97047.34
2023-02-04T20:55:28.999Z,97040.91
2023-02-04T20:58:18.895Z,97039.34
2023-02-04T21:00:54.687Z,97046.81
2023-02-04T21:03:30.985Z,97037.22
2023-02-04T21:06:01.384Z,97019.91
2023-02-04T21:08:33.834Z,97022.91
2023-02-04T21:11:03.683Z,97017.69
2023-02-04T21:13:33.072Z,97028.66
2023-02-04T21:16:02.319Z,97021.50
2023-02-04T21:18:35.397Z,97027.28
2023-02-04T21:21:08.033Z,97024.09
2023-02-04T21:23:37.917Z,97023.25
2023-02-04T21:26:07.744Z,97029.31
2023-02-04T21:28:36.646Z,97026.72
2023-02-04T21:31:05.800Z,97023.25
2023-02-04T21:33:34.930Z,97023.69
2023-02-04T21:36:04.091Z,97026.88
2023-02-04T21:38:32.899Z,97028.78
2023-02-04T21:41:01.772Z,97027.41
2023-02-04T21:43:31.035Z,97005.19
2023-02-04T21:46:00.086Z,97023.91
2023-02-04T21:48:29.175Z,97023.44
2023-02-04T21:50:58.084Z,97021.13
2023-02-04T21:53:26.963Z,96997.34
2023-02-04T21:55:56.994Z,97008.91
2023-02-04T21:58:27.097Z,97025.00
2023-02-04T22:00:57.490Z,97018.44
2023-02-04T22:03:26.585Z,97005.53
2023-02-04T22:05:55.854Z,97018.81
2023-02-04T22:08:24.853Z,97014.88
2023-02-04T22:10:53.901Z,97010.69
2023-02-04T22:13:22.933Z,96991.34
2023-02-04T22:15:52.798Z,97008.97
2023-02-04T22:18:21.781Z,96978.13
2023-02-04T22:20:50.676Z,97010.19
2023-02-04T22:23:19.672Z,97009.63
2023-02-04T22:25:48.569Z,97009.22
2023-02-04T22:28:17.781Z,97016.47
2023-02-04T22:30:46.700Z,97012.63
2023-02-04T22:33:15.700Z,97003.84
2023-02-04T22:35:46.484Z,97009.09
2023-02-04T22:38:15.445Z,97005.94
2023-02-04T22:40:44.254Z,97014.13
2023-02-04T22:43:16.016Z,97011.97
2023-02-04T22:45:44.862Z,97000.94
2023-02-04T22:48:13.733Z,97014.50
2023-02-04T22:50:44.063Z,97007.91
2023-02-04T22:53:13.821Z,97014.13
2023-02-04T22:55:42.645Z,97007.72
2023-02-04T22:58:11.707Z,97012.94
2023-02-04T23:00:43.908Z,97010.16
2023-02-04T23:03:13.800Z,97006.81
2023-02-04T23:05:42.774Z,97003.41
2023-02-04T23:08:11.738Z,97006.44
2023-02-04T23:10:41.288Z,97015.25
2023-02-04T23:13:10.443Z,96994.59
2023-02-04T23:15:39.657Z,97015.47
2023-02-04T23:18:09.213Z,96982.38
2023-02-04T23:20:40.904Z,97007.25
2023-02-04T23:23:15.460Z,96999.81
2023-02-04T23:25:46.933Z,97005.84
2023-02-04T23:28:16.745Z,96994.59
2023-02-04T23:30:46.029Z,97006.38
2023-02-04T23:33:15.130Z,97001.19
2023-02-04T23:35:45.066Z,96990.78
2023-02-04T23:38:14.613Z,96993.16
2023-02-04T23:40:43.503Z,96995.75
2023-02-04T23:43:12.813Z,97001.00
2023-02-04T23:45:41.737Z,96997.00
2023-02-04T23:48:11.927Z,96996.38
2023-02-04T23:50:42.125Z,96996.38
2023-02-04T23:53:12.750Z,96987.56
2023-02-04T23:55:41.689Z,96998.19
2023-02-04T23:58:10.581Z,96994.59
